Time;durP1;ratioP1;P1;durP2;ratioP2;P2;SDS_P1;SDS_P2;PMS_P1;PMS_P2;Temp;Humidity;BMP_temperature;BMP_pressure;BME280_temperature;BME280_humidity;BME280_pressure;Samples;Min_cycle;Max_cycle;Signal;HPM_P1;HPM_P2
2024/01/07 00:02:24;;;;;;;22.27;18.13;;;;;;;4.98;100.00;97451.28;5114205;28;20284;-74
2024/01/07 00:04:51;;;;;;;22.30;18.00;;;;;;;4.89;100.00;97449.81;5114177;28;20203;-74
2024/01/07 00:07:18;;;;;;;21.20;17.63;;;;;;;4.94;100.00;97455.34;5114059;28;20213;-74
2024/01/07 00:09:44;;;;;;;21.50;17.10;;;;;;;4.98;100.00;97459.16;5113709;28;20226;-74
2024/01/07 00:12:11;;;;;;;19.60;17.50;;;;;;;5.01;100.00;97455.34;5114036;28;20260;-74
2024/01/07 00:14:40;;;;;;;21.20;17.20;;;;;;;4.98;100.00;97453.13;5113982;28;20225;-74
2024/01/07 00:17:08;;;;;;;18.90;15.33;;;;;;;5.12;100.00;97460.03;5113580;28;20210;-74
2024/01/07 00:19:35;;;;;;;19.43;16.40;;;;;;;5.05;100.00;97459.19;5113957;28;20223;-74
2024/01/07 00:22:02;;;;;;;17.53;15.33;;;;;;;5.03;100.00;97456.78;5113457;28;20219;-74
2024/01/07 00:24:29;;;;;;;18.57;16.40;;;;;;;5.09;100.00;97463.06;5113942;28;20210;-74
2024/01/07 00:26:56;;;;;;;18.73;16.20;;;;;;;5.19;100.00;97452.94;5113964;28;20229;-74
2024/01/07 00:29:22;;;;;;;17.00;14.23;;;;;;;5.16;100.00;97456.78;5113919;28;20233;-74
2024/01/07 00:31:49;;;;;;;17.27;14.87;;;;;;;5.10;100.00;97460.22;5113610;28;20683;-74
2024/01/07 00:34:15;;;;;;;16.30;14.50;;;;;;;5.09;100.00;97463.06;5113478;28;20234;-74
2024/01/07 00:36:45;;;;;;;16.73;13.33;;;;;;;5.13;100.00;97466.91;5113875;28;20207;-74
2024/01/07 00:39:16;;;;;;;15.93;13.63;;;;;;;5.13;100.00;97459.03;5113468;28;20223;-74
2024/01/07 00:41:48;;;;;;;15.90;13.30;;;;;;;5.20;100.00;97457.22;5113326;28;20203;-74
2024/01/07 00:44:17;;;;;;;14.27;12.53;;;;;;;5.27;100.00;97456.22;5113191;28;20179;-74
2024/01/07 00:46:50;;;;;;;15.63;13.73;;;;;;;5.21;100.00;97456.22;5113290;28;20203;-74
2024/01/07 00:49:19;;;;;;;15.23;13.60;;;;;;;5.13;100.00;97465.13;5113295;28;20227;-74
2024/01/07 00:51:47;;;;;;;15.43;13.83;;;;;;;5.08;100.00;97459.63;5113308;28;20693;-74
2024/01/07 00:54:17;;;;;;;17.13;15.33;;;;;;;5.19;100.00;97456.41;5113560;28;20245;-74
2024/01/07 00:56:50;;;;;;;15.27;13.50;;;;;;;5.07;100.00;97465.09;5113243;28;20199;-74
2024/01/07 00:59:19;;;;;;;16.90;13.90;;;;;;;5.28;100.00;97465.75;5113447;28;20280;-74
2024/01/07 01:01:49;;;;;;;16.47;14.10;;;;;;;5.30;100.00;97466.34;5113246;28;20232;-74
2024/01/07 01:04:18;;;;;;;16.13;14.07;;;;;;;5.31;100.00;97469.81;5115767;28;20204;-74
2024/01/07 01:06:45;;;;;;;15.17;13.53;;;;;;;5.28;100.00;97464.91;5117041;27;20253;-74
2024/01/07 01:09:13;;;;;;;18.37;14.70;;;;;;;5.02;100.00;97465.66;5117077;28;20223;-74
2024/01/07 01:11:43;;;;;;;18.17;15.20;;;;;;;5.02;100.00;97470.94;5117053;28;20298;-74
2024/01/07 01:14:12;;;;;;;16.03;13.77;;;;;;;4.99;100.00;97468.72;5117184;28;20301;-74
2024/01/07 01:16:41;;;;;;;18.43;15.20;;;;;;;5.00;100.00;97467.72;5116906;28;20209;-74
2024/01/07 01:19:13;;;;;;;18.20;15.33;;;;;;;4.94;100.00;97471.16;5116699;28;20259;-74
2024/01/07 01:21:43;;;;;;;18.90;16.87;;;;;;;5.01;100.00;97479.03;5116715;28;20288;-74
2024/01/07 01:24:10;;;;;;;19.23;15.97;;;;;;;5.10;100.00;97472.56;5116805;28;20180;-74
2024/01/07 01:26:40;;;;;;;19.63;15.33;;;;;;;5.12;100.00;97483.75;5116784;28;20294;-74
2024/01/07 01:29:08;;;;;;;20.87;15.77;;;;;;;5.03;100.00;97483.13;5116800;28;20203;-74
2024/01/07 01:31:35;;;;;;;18.57;15.67;;;;;;;5.00;100.00;97477.41;5116596;28;20293;-74
2024/01/07 01:34:06;;;;;;;19.87;15.80;;;;;;;5.02;100.00;97484.13;5116555;28;20222;-74
2024/01/07 01:36:36;;;;;;;19.47;15.70;;;;;;;5.07;100.00;97483.53;5116626;28;20673;-74
2024/01/07 01:39:03;;;;;;;20.43;16.53;;;;;;;5.12;100.00;97479.31;5116257;28;20207;-74
2024/01/07 01:41:33;;;;;;;20.43;17.23;;;;;;;5.23;100.00;97488.44;5116785;28;20207;-74
2024/01/07 01:44:03;;;;;;;20.13;16.60;;;;;;;5.22;100.00;97484.16;5116039;28;20674;-74
2024/01/07 01:46:30;;;;;;;22.70;16.50;;;;;;;5.18;100.00;97483.78;5116266;28;20199;-74
2024/01/07 01:49:00;;;;;;;23.40;16.83;;;;;;;5.20;100.00;97488.84;5116561;28;20230;-74
2024/01/07 01:51:28;;;;;;;24.97;18.00;;;;;;;5.16;100.00;97490.25;5116556;28;20588;-74
2024/01/07 01:53:57;;;;;;;23.33;17.80;;;;;;;5.05;100.00;97485.53;5116162;28;20313;-74
2024/01/07 01:56:26;;;;;;;25.23;18.10;;;;;;;5.03;100.00;97492.84;5116522;28;20242;-74
2024/01/07 01:58:52;;;;;;;26.53;18.77;;;;;;;5.14;100.00;97489.63;5116324;28;20678;-74
2024/01/07 02:01:19;;;;;;;26.00;19.43;;;;;;;5.10;100.00;97491.84;5116007;28;20666;-74
2024/01/07 02:03:46;;;;;;;27.10;19.50;;;;;;;5.13;100.00;97493.28;5116227;28;20199;-74
2024/01/07 02:06:17;;;;;;;26.60;19.93;;;;;;;5.19;100.00;97492.47;5115795;28;20616;-74
2024/01/07 02:08:51;;;;;;;26.43;18.33;;;;;;;5.09;100.00;97487.59;5115928;28;20672;-74
2024/01/07 02:11:26;;;;;;;28.10;19.03;;;;;;;5.02;100.00;97488.59;5116563;28;20269;-74
2024/01/07 02:13:58;;;;;;;26.73;19.03;;;;;;;5.13;100.00;97491.47;5115679;28;20699;-74
2024/01/07 02:16:29;;;;;;;26.67;19.50;;;;;;;5.05;100.00;97494.25;5114648;28;20194;-74
2024/01/07 02:19:03;;;;;;;26.80;19.17;;;;;;;4.98;100.00;97490.00;5115500;28;20198;-74
2024/01/07 02:21:31;;;;;;;25.43;18.67;;;;;;;5.11;100.00;97484.75;5115544;28;20210;-74
2024/01/07 02:23:59;;;;;;;25.20;19.90;;;;;;;5.04;100.00;97490.00;5115537;27;20562;-74
2024/01/07 02:26:30;;;;;;;25.97;18.77;;;;;;;4.96;100.00;97494.63;5115655;28;20298;-74
2024/01/07 02:28:57;;;;;;;25.10;18.90;;;;;;;5.11;100.00;97492.66;5116039;28;20210;-74
2024/01/07 02:31:30;;;;;;;29.03;19.47;;;;;;;4.85;100.00;97495.19;5115807;28;20207;-74
2024/01/07 02:33:58;;;;;;;24.70;18.13;;;;;;;5.04;100.00;97490.00;5115654;28;20302;-74
2024/01/07 02:36:26;;;;;;;27.93;20.33;;;;;;;4.96;100.00;97486.72;5115651;28;20231;-74
2024/01/07 02:38:56;;;;;;;25.77;18.93;;;;;;;4.89;100.00;97494.59;5115216;28;20239;-74
2024/01/07 02:41:29;;;;;;;23.40;19.10;;;;;;;4.78;100.00;97491.72;5115103;28;20191;-74
2024/01/07 02:44:03;;;;;;;26.27;19.13;;;;;;;4.80;100.00;97489.72;5115125;28;20673;-74
2024/01/07 02:46:32;;;;;;;27.27;19.20;;;;;;;4.92;100.00;97491.56;5114909;28;20219;-74
2024/01/07 02:49:01;;;;;;;24.50;18.90;;;;;;;4.93;100.00;97501.09;5115694;28;20214;-74
2024/01/07 02:51:29;;;;;;;22.80;17.73;;;;;;;5.03;100.00;97485.75;5115042;28;20199;-74
2024/01/07 02:53:58;;;;;;;25.27;18.53;;;;;;;4.99;100.00;97491.59;5114897;28;20667;-74
2024/01/07 02:56:29;;;;;;;22.67;17.80;;;;;;;5.07;100.00;97496.72;5115269;28;20664;-74
2024/01/07 02:58:57;;;;;;;23.90;18.67;;;;;;;4.88;100.00;97495.63;5114731;28;20585;-74
2024/01/07 03:01:25;;;;;;;25.47;18.00;;;;;;;4.91;100.00;97500.50;5114823;28;20294;-74
2024/01/07 03:03:54;;;;;;;21.27;18.00;;;;;;;4.96;100.00;97497.25;5115140;28;20207;-74
2024/01/07 03:06:22;;;;;;;22.67;17.63;;;;;;;5.03;100.00;97500.75;5114685;28;20294;-74
2024/01/07 03:08:49;;;;;;;20.70;16.30;;;;;;;5.00;100.00;97495.84;5114696;28;20207;-74
2024/01/07 03:11:15;;;;;;;20.43;16.03;;;;;;;5.02;100.00;97492.00;5114677;28;20218;-74
2024/01/07 03:13:42;;;;;;;20.30;17.17;;;;;;;4.96;100.00;97495.44;5114568;28;20207;-74
2024/01/07 03:16:08;;;;;;;21.57;17.60;;;;;;;4.84;100.00;97494.38;5114760;28;20234;-74
2024/01/07 03:18:35;;;;;;;21.37;17.63;;;;;;;4.95;100.00;97496.47;5114892;28;20206;-74
2024/01/07 03:21:01;;;;;;;22.20;15.97;;;;;;;4.88;100.00;97500.88;5115473;28;20223;-74
2024/01/07 03:23:27;;;;;;;20.03;17.40;;;;;;;4.94;100.00;97509.81;5114610;28;20234;-74
2024/01/07 03:25:54;;;;;;;18.53;15.47;;;;;;;5.05;100.00;97504.81;5114029;28;20678;-74
2024/01/07 03:28:20;;;;;;;19.17;14.63;;;;;;;5.03;100.00;97513.91;5114353;28;20210;-74
2024/01/07 03:30:46;;;;;;;20.03;16.13;;;;;;;4.95;100.00;97516.72;5114194;28;20826;-74
2024/01/07 03:33:13;;;;;;;19.50;14.80;;;;;;;4.84;100.00;97519.91;5115127;28;20214;-74
2024/01/07 03:35:39;;;;;;;19.67;16.57;;;;;;;4.82;100.00;97521.91;5114625;28;20236;-74
2024/01/07 03:38:06;;;;;;;19.47;15.60;;;;;;;4.81;100.00;97515.84;5114480;28;20198;-74
2024/01/07 03:40:32;;;;;;;19.43;16.33;;;;;;;4.97;100.00;97519.97;5114375;28;20230;-74
2024/01/07 03:42:59;;;;;;;18.60;15.33;;;;;;;4.97;100.00;97512.88;5114190;28;20207;-74
2024/01/07 03:45:26;;;;;;;19.17;16.00;;;;;;;4.88;100.00;97516.69;5114153;28;20285;-74
2024/01/07 03:47:53;;;;;;;19.97;15.43;;;;;;;4.87;100.00;97517.69;5114390;28;20206;-74
2024/01/07 03:50:19;;;;;;;20.70;16.23;;;;;;;4.80;100.00;97522.09;5113900;28;20219;-74
2024/01/07 03:52:48;;;;;;;23.57;16.07;;;;;;;4.76;100.00;97522.72;5113996;28;20670;-74
2024/01/07 03:55:15;;;;;;;21.33;16.40;;;;;;;4.74;100.00;97515.00;5113830;28;20310;-74
2024/01/07 03:57:43;;;;;;;22.57;17.63;;;;;;;4.64;100.00;97524.25;5113974;28;20203;-74
2024/01/07 04:00:11;;;;;;;23.50;17.10;;;;;;;4.57;100.00;97510.25;5113799;28;20304;-74
2024/01/07 04:02:37;;;;;;;22.07;16.40;;;;;;;4.61;100.00;97516.78;5114150;28;20286;-74
2024/01/07 04:05:04;;;;;;;20.57;16.73;;;;;;;4.65;100.00;97518.81;5114007;28;20534;-74
2024/01/07 04:07:31;;;;;;;23.77;18.00;;;;;;;4.52;100.00;97520.56;5114042;28;20199;-74
2024/01/07 04:09:59;;;;;;;22.20;16.97;;;;;;;4.59;100.00;97518.75;5113666;28;20615;-74
2024/01/07 04:12:27;;;;;;;22.13;15.10;;;;;;;4.60;100.00;97523.00;5113606;28;20207;-74
2024/01/07 04:15:00;;;;;;;22.43;17.17;;;;;;;4.57;100.00;97518.16;5113501;28;20681;-74
2024/01/07 04:17:30;;;;;;;21.93;15.60;;;;;;;4.56;100.00;97533.13;5113553;28;20192;-74
2024/01/07 04:20:00;;;;;;;19.93;16.07;;;;;;;4.67;100.00;97534.41;5113469;28;20234;-74
2024/01/07 04:22:30;;;;;;;23.03;15.70;;;;;;;4.61;100.00;97524.66;5113523;28;20652;-74
2024/01/07 04:24:59;;;;;;;22.33;17.17;;;;;;;4.59;100.00;97531.94;5113434;28;20217;-74
2024/01/07 04:27:28;;;;;;;20.13;17.07;;;;;;;4.54;100.00;97537.78;5113543;28;20259;-74
2024/01/07 04:30:01;;;;;;;19.07;15.20;;;;;;;4.63;100.00;97538.44;5113387;28;20223;-74
2024/01/07 04:32:31;;;;;;;21.90;16.10;;;;;;;4.65;100.00;97537.22;5113760;28;20195;-74
2024/01/07 04:35:02;;;;;;;19.03;15.37;;;;;;;4.57;100.00;97536.59;5113270;28;20318;-74
2024/01/07 04:37:30;;;;;;;18.63;15.00;;;;;;;4.60;100.00;97538.81;5113578;28;20198;-74
2024/01/07 04:39:58;;;;;;;19.37;15.50;;;;;;;4.54;100.00;97542.22;5116771;28;20229;-75
2024/01/07 04:42:26;;;;;;;20.43;15.27;;;;;;;4.60;100.00;97544.91;5117387;28;20207;-75
2024/01/07 04:44:58;;;;;;;20.17;15.93;;;;;;;4.63;100.00;97546.31;5117993;28;20199;-74
2024/01/07 04:47:37;;;;;;;20.83;15.13;;;;;;;4.64;100.00;97550.59;5117550;28;20533;-74
2024/01/07 04:50:15;;;;;;;18.33;14.00;;;;;;;4.59;100.00;97543.28;5117480;28;20222;-74
2024/01/07 04:52:41;;;;;;;20.03;15.07;;;;;;;4.60;100.00;97547.53;5116921;28;20183;-74
2024/01/07 04:55:10;;;;;;;20.43;15.37;;;;;;;4.48;100.00;97546.44;5117284;28;20566;-74
2024/01/07 04:57:40;;;;;;;19.50;15.23;;;;;;;4.51;100.00;97547.88;5117679;28;20293;-74
2024/01/07 05:00:09;;;;;;;17.63;13.77;;;;;;;4.64;100.00;97548.78;5117589;28;20309;-75
2024/01/07 05:02:40;;;;;;;18.40;14.50;;;;;;;4.50;100.00;97548.88;5117178;28;20241;-75
2024/01/07 05:05:10;;;;;;;17.87;13.43;;;;;;;4.61;100.00;97557.03;5117081;28;20615;-74
2024/01/07 05:07:39;;;;;;;17.07;12.87;;;;;;;4.57;100.00;97563.69;5117094;28;20199;-74
2024/01/07 05:10:08;;;;;;;16.07;13.70;;;;;;;4.49;100.00;97563.06;5117357;28;20641;-74
2024/01/07 05:12:40;;;;;;;18.17;13.87;;;;;;;4.40;100.00;97564.19;5117021;28;20206;-74
2024/01/07 05:15:09;;;;;;;17.80;13.77;;;;;;;4.55;100.00;97557.81;5116941;28;20207;-74
2024/01/07 05:17:41;;;;;;;17.57;13.80;;;;;;;4.56;100.00;97553.38;5116665;28;20256;-74
2024/01/07 05:20:09;;;;;;;16.03;12.47;;;;;;;4.58;100.00;97562.72;5116835;28;20227;-74
2024/01/07 05:22:38;;;;;;;16.93;12.27;;;;;;;4.60;100.00;97570.41;5116720;28;20222;-75
2024/01/07 05:25:08;;;;;;;14.07;11.60;;;;;;;4.61;100.00;97564.16;5116766;28;20205;-75
2024/01/07 05:27:36;;;;;;;15.00;11.20;;;;;;;4.56;100.00;97564.72;5116818;28;20202;-75
2024/01/07 05:30:07;;;;;;;16.70;12.67;;;;;;;4.53;100.00;97562.47;5116625;28;20709;-75
2024/01/07 05:32:35;;;;;;;15.47;11.70;;;;;;;4.52;100.00;97576.63;5117549;28;20194;-75
2024/01/07 05:35:03;;;;;;;14.90;12.20;;;;;;;4.48;100.00;97566.69;5116763;28;20309;-75
2024/01/07 05:37:35;;;;;;;15.43;11.37;;;;;;;4.52;100.00;97570.56;5116910;28;20207;-75
2024/01/07 05:40:04;;;;;;;16.03;13.13;;;;;;;4.46;100.00;97579.22;5116936;28;20232;-75
2024/01/07 05:42:31;;;;;;;15.17;12.87;;;;;;;4.46;100.00;97577.41;5116827;28;20231;-75
2024/01/07 05:44:59;;;;;;;17.90;13.27;;;;;;;4.38;100.00;97576.75;5116527;28;20605;-74
2024/01/07 05:47:27;;;;;;;15.43;11.93;;;;;;;4.44;100.00;97583.88;5116605;27;20203;-74
2024/01/07 05:49:53;;;;;;;16.30;12.80;;;;;;;4.45;100.00;97588.94;5115845;28;20228;-74
2024/01/07 05:52:19;;;;;;;15.60;11.67;;;;;;;4.51;100.00;97589.97;5116425;28;20210;-74
2024/01/07 05:54:46;;;;;;;13.07;10.67;;;;;;;4.48;100.00;97595.66;5116491;28;20227;-74
2024/01/07 05:57:13;;;;;;;16.47;11.33;;;;;;;4.45;100.00;97601.28;5116498;28;20586;-74
2024/01/07 05:59:39;;;;;;;15.97;11.53;;;;;;;4.48;100.00;97601.69;5116424;28;20222;-74
2024/01/07 06:02:06;;;;;;;15.47;11.83;;;;;;;4.47;100.00;97604.56;5116394;28;20203;-74
2024/01/07 06:04:32;;;;;;;14.47;11.30;;;;;;;4.49;100.00;97608.63;5116247;28;20210;-74
2024/01/07 06:06:59;;;;;;;14.87;11.53;;;;;;;4.46;100.00;97606.34;5116118;28;20205;-74
2024/01/07 06:09:25;;;;;;;14.67;11.23;;;;;;;4.45;100.00;97609.19;5116047;28;20223;-74
2024/01/07 06:11:52;;;;;;;13.80;10.57;;;;;;;4.40;100.00;97606.31;5115721;28;20670;-74
2024/01/07 06:14:18;;;;;;;14.23;10.93;;;;;;;4.38;100.00;97605.69;5116045;28;20213;-74
2024/01/07 06:16:44;;;;;;;14.47;11.60;;;;;;;4.46;100.00;97618.69;5115535;28;20717;-74
2024/01/07 06:19:11;;;;;;;13.73;11.37;;;;;;;4.43;100.00;97606.72;5115604;28;20728;-74
2024/01/07 06:21:37;;;;;;;15.77;12.17;;;;;;;4.41;100.00;97613.19;5115437;28;20696;-74
2024/01/07 06:24:04;;;;;;;14.00;11.37;;;;;;;4.46;100.00;97613.44;5115602;28;20188;-74
2024/01/07 06:26:30;;;;;;;15.13;10.70;;;;;;;4.41;100.00;97619.28;5115627;28;20662;-74
2024/01/07 06:28:56;;;;;;;15.80;11.87;;;;;;;4.37;100.00;97617.22;5115483;28;20203;-74
2024/01/07 06:31:23;;;;;;;15.43;10.63;;;;;;;4.43;100.00;97621.72;5115686;28;20215;-74
2024/01/07 06:33:49;;;;;;;14.37;11.80;;;;;;;4.41;100.00;97615.81;5115488;28;20203;-74
2024/01/07 06:36:15;;;;;;;13.03;10.50;;;;;;;4.42;100.00;97626.16;5115457;28;20223;-74
2024/01/07 06:38:42;;;;;;;15.57;11.20;;;;;;;4.34;100.00;97631.56;5115447;28;20207;-74
2024/01/07 06:41:09;;;;;;;14.60;10.50;;;;;;;4.40;100.00;97636.09;5115057;28;20227;-74
2024/01/07 06:43:35;;;;;;;11.33;10.10;;;;;;;4.35;100.00;97638.47;5115309;28;20204;-74
2024/01/07 06:46:02;;;;;;;12.27;10.97;;;;;;;4.33;100.00;97645.72;5115347;28;20199;-74
2024/01/07 06:48:28;;;;;;;13.93;9.37;;;;;;;4.34;100.00;97649.19;5115415;28;20573;-74
2024/01/07 06:50:55;;;;;;;11.23;9.33;;;;;;;4.36;100.00;97652.44;5114919;28;20227;-74
2024/01/07 06:53:21;;;;;;;12.33;9.93;;;;;;;4.35;100.00;97645.53;5115518;28;20207;-74
2024/01/07 06:55:48;;;;;;;11.90;9.37;;;;;;;4.40;100.00;97651.88;5115291;28;20233;-74
2024/01/07 06:58:14;;;;;;;10.70;9.70;;;;;;;4.27;100.00;97659.66;5115861;27;20214;-74
2024/01/07 07:00:41;;;;;;;10.43;9.33;;;;;;;4.25;100.00;97666.09;5114422;28;20227;-74
2024/01/07 07:03:07;;;;;;;10.07;8.60;;;;;;;4.33;100.00;97658.88;5114680;28;20688;-74
2024/01/07 07:05:34;;;;;;;9.57;7.60;;;;;;;4.34;100.00;97670.22;5115106;28;20203;-74
2024/01/07 07:08:00;;;;;;;8.70;7.77;;;;;;;4.25;100.00;97671.38;5115050;28;20282;-74
2024/01/07 07:10:27;;;;;;;8.53;7.47;;;;;;;4.24;100.00;97670.53;5114794;28;20555;-74
2024/01/07 07:12:53;;;;;;;10.10;8.10;;;;;;;4.18;100.00;97684.47;5114589;28;20585;-74
2024/01/07 07:15:19;;;;;;;8.30;7.03;;;;;;;4.26;100.00;97684.34;5114834;28;20580;-74
2024/01/07 07:17:46;;;;;;;10.00;6.87;;;;;;;4.21;100.00;97681.44;5114937;28;20206;-74
2024/01/07 07:20:13;;;;;;;10.73;6.90;;;;;;;4.21;100.00;97680.63;5114898;28;20223;-74
2024/01/07 07:22:39;;;;;;;7.93;7.00;;;;;;;4.26;100.00;97697.50;5114443;28;20215;-74
2024/01/07 07:25:06;;;;;;;7.93;6.70;;;;;;;4.07;100.00;97698.09;5114425;28;20670;-74
2024/01/07 07:27:32;;;;;;;8.63;6.43;;;;;;;4.09;100.00;97708.44;5114773;28;20210;-74
2024/01/07 07:29:59;;;;;;;7.70;6.70;;;;;;;4.08;100.00;97702.38;5114599;28;20223;-74
2024/01/07 07:32:25;;;;;;;6.97;6.23;;;;;;;4.09;100.00;97709.25;5114675;28;20573;-74
2024/01/07 07:34:51;;;;;;;6.30;5.70;;;;;;;4.07;100.00;97715.69;5114103;28;20549;-74
2024/01/07 07:37:18;;;;;;;6.83;6.20;;;;;;;3.97;100.00;97715.19;5114294;28;20230;-74
2024/01/07 07:39:44;;;;;;;8.13;5.77;;;;;;;4.03;100.00;97711.81;5114111;28;20324;-74
2024/01/07 07:42:11;;;;;;;8.10;6.57;;;;;;;3.99;100.00;97724.53;5113829;28;20670;-74
2024/01/07 07:44:39;;;;;;;6.80;6.10;;;;;;;3.97;100.00;97725.72;5114134;28;20286;-74
2024/01/07 07:47:05;;;;;;;7.40;6.43;;;;;;;3.84;100.00;97728.19;5114449;28;20568;-74
2024/01/07 07:49:31;;;;;;;7.03;6.20;;;;;;;3.84;100.00;97728.19;5114037;28;20231;-74
2024/01/07 07:51:58;;;;;;;6.77;6.10;;;;;;;3.83;100.00;97734.41;5114295;28;20207;-74
2024/01/07 07:54:24;;;;;;;7.07;6.03;;;;;;;3.77;100.00;97741.25;5113860;28;20696;-74
2024/01/07 07:56:51;;;;;;;6.67;5.33;;;;;;;3.82;100.00;97749.41;5113803;28;20694;-74
2024/01/07 07:59:17;;;;;;;6.73;5.63;;;;;;;3.71;100.00;97754.31;5114050;28;20223;-74
2024/01/07 08:01:43;;;;;;;6.37;5.60;;;;;;;3.67;100.00;97740.69;5114537;28;20687;-74
2024/01/07 08:04:10;;;;;;;6.33;5.20;;;;;;;3.71;100.00;97739.34;5115018;28;20666;-73
2024/01/07 08:06:37;;;;;;;6.80;5.23;;;;;;;3.71;100.00;97741.16;5115123;28;20232;-73
2024/01/07 08:09:03;;;;;;;7.07;5.40;;;;;;;3.65;100.00;97749.78;5113637;28;20568;-74
2024/01/07 08:11:30;;;;;;;6.87;5.20;;;;;;;3.63;100.00;97749.97;5113872;28;20203;-74
2024/01/07 08:13:59;;;;;;;6.43;5.10;;;;;;;3.60;100.00;97747.69;5114080;28;20210;-74
2024/01/07 08:16:26;;;;;;;5.53;4.93;;;;;;;3.63;100.00;97757.88;5114034;28;20230;-74
2024/01/07 08:18:56;;;;;;;5.97;5.07;;;;;;;3.64;100.00;97758.66;5113623;28;20213;-74
2024/01/07 08:21:34;;;;;;;6.33;5.10;;;;;;;3.63;100.00;97764.91;5113659;28;20294;-74
2024/01/07 08:24:15;;;;;;;6.17;5.40;;;;;;;3.67;100.00;97753.03;5111457;28;20203;-74
2024/01/07 08:26:55;;;;;;;5.90;4.90;;;;;;;3.59;100.00;97764.47;5113348;28;20179;-74
2024/01/07 08:29:36;;;;;;;5.53;4.90;;;;;;;3.64;100.00;97762.13;5113378;28;20231;-74
2024/01/07 08:32:17;;;;;;;5.77;5.13;;;;;;;3.59;100.00;97764.47;5113150;28;20202;-74
2024/01/07 08:34:57;;;;;;;6.77;6.07;;;;;;;3.63;100.00;97764.91;5113142;28;20195;-74
2024/01/07 08:37:38;;;;;;;6.87;6.10;;;;;;;3.58;100.00;97767.28;5113044;28;20203;-74
2024/01/07 08:40:25;;;;;;;7.33;5.63;;;;;;;3.55;100.00;97772.88;5112856;28;20279;-74
2024/01/07 08:43:06;;;;;;;6.93;6.00;;;;;;;3.62;100.00;97774.59;5112082;28;20221;-74
2024/01/07 08:45:48;;;;;;;7.20;5.77;;;;;;;3.59;100.00;97771.53;5112913;28;20416;-74
2024/01/07 08:48:28;;;;;;;7.73;5.93;;;;;;;3.57;100.00;97778.81;5111606;28;20278;-74
2024/01/07 08:50:57;;;;;;;6.47;5.63;;;;;;;3.54;100.00;97781.78;5111521;28;20303;-74
2024/01/07 08:53:23;;;;;;;6.27;5.67;;;;;;;3.59;100.00;97775.00;5113589;28;20204;-74
2024/01/07 08:55:50;;;;;;;6.67;5.93;;;;;;;3.52;100.00;97778.53;5113385;28;20259;-74
2024/01/07 08:58:16;;;;;;;7.80;6.60;;;;;;;3.63;100.00;97783.31;5113528;28;20203;-74
2024/01/07 09:00:43;;;;;;;6.20;5.13;;;;;;;3.56;100.00;97792.91;5113621;28;20224;-74
2024/01/07 09:03:10;;;;;;;6.87;5.30;;;;;;;3.67;100.00;97792.47;5112970;28;20203;-74
2024/01/07 09:05:37;;;;;;;5.70;4.53;;;;;;;3.75;100.00;97802.91;5113243;28;20286;-74
2024/01/07 09:08:04;;;;;;;4.67;4.10;;;;;;;3.64;100.00;97798.09;5113191;28;20207;-74
2024/01/07 09:10:30;;;;;;;4.53;3.70;;;;;;;3.73;100.00;97805.72;5113188;28;20223;-74
2024/01/07 09:12:57;;;;;;;3.20;2.90;;;;;;;3.86;100.00;97816.41;5113337;28;20210;-74
2024/01/07 09:15:23;;;;;;;3.57;3.27;;;;;;;3.80;100.00;97818.94;5114563;28;20203;-74
2024/01/07 09:17:49;;;;;;;2.90;2.60;;;;;;;3.85;100.00;97814.75;5113525;28;20207;-74
2024/01/07 09:20:16;;;;;;;4.00;3.30;;;;;;;3.81;100.00;97821.41;5113180;28;20219;-74
2024/01/07 09:22:43;;;;;;;4.47;3.67;;;;;;;3.85;100.00;97827.91;5112730;28;20211;-74
2024/01/07 09:25:10;;;;;;;3.60;3.30;;;;;;;3.82;100.00;97837.97;5114887;28;20280;-74
2024/01/07 09:27:37;;;;;;;3.93;3.47;;;;;;;3.82;100.00;97836.16;5116818;28;20199;-74
2024/01/07 09:30:03;;;;;;;3.93;2.97;;;;;;;3.98;100.00;97838.59;5116368;28;20726;-74
2024/01/07 09:32:30;;;;;;;4.50;3.53;;;;;;;4.10;100.00;97833.69;5116739;28;20235;-74
2024/01/07 09:34:56;;;;;;;3.60;3.30;;;;;;;4.19;100.00;97843.09;5116361;28;20203;-74
2024/01/07 09:37:22;;;;;;;3.53;3.23;;;;;;;4.10;100.00;97852.09;5116396;28;20732;-74
2024/01/07 09:39:49;;;;;;;3.23;2.93;;;;;;;4.16;100.00;97841.66;5116286;28;20702;-74
2024/01/07 09:42:19;;;;;;;3.33;3.03;;;;;;;4.08;100.00;97848.84;5116612;28;20214;-74
2024/01/07 09:44:46;;;;;;;3.63;3.30;;;;;;;4.06;100.00;97840.31;5116472;28;20203;-74
2024/01/07 09:47:15;;;;;;;3.83;3.50;;;;;;;4.08;100.00;97851.47;5116582;28;20210;-74
2024/01/07 09:49:43;;;;;;;3.70;3.40;;;;;;;3.98;100.00;97856.19;5116145;28;20726;-74
2024/01/07 09:52:11;;;;;;;3.57;3.10;;;;;;;4.03;100.00;97851.22;5116176;28;20662;-74
2024/01/07 09:54:38;;;;;;;3.40;3.10;;;;;;;3.93;100.00;97851.47;5116512;28;20199;-74
2024/01/07 09:57:07;;;;;;;4.33;3.77;;;;;;;3.97;100.00;97851.94;5116438;28;20219;-74
2024/01/07 09:59:34;;;;;;;4.00;3.57;;;;;;;3.93;100.00;97848.84;5116292;28;20230;-74
2024/01/07 10:02:01;;;;;;;4.63;4.23;;;;;;;3.80;100.00;97845.25;5116178;28;20211;-74
2024/01/07 10:04:28;;;;;;;5.50;4.17;;;;;;;3.65;100.00;97847.03;5116041;28;20207;-74
2024/01/07 10:06:54;;;;;;;5.07;4.57;;;;;;;3.59;100.00;97845.97;5115727;28;20693;-74
2024/01/07 10:09:26;;;;;;;5.60;4.07;;;;;;;3.72;100.00;97842.69;5115522;28;20706;-74
2024/01/07 10:11:52;;;;;;;4.63;3.93;;;;;;;3.78;100.00;97842.78;5115974;28;20282;-74
2024/01/07 10:14:19;;;;;;;6.43;4.67;;;;;;;3.77;100.00;97841.16;5115777;28;20199;-75
2024/01/07 10:16:45;;;;;;;5.87;4.93;;;;;;;3.63;100.00;97838.50;5115426;28;20219;-74
2024/01/07 10:19:12;;;;;;;5.03;4.53;;;;;;;3.53;100.00;97841.41;5115706;28;20220;-74
2024/01/07 10:21:38;;;;;;;5.13;4.57;;;;;;;3.56;100.00;97834.97;5115184;28;20211;-74
2024/01/07 10:24:24;;;;;;;4.20;3.80;;;;;;;3.66;100.00;97848.69;5115590;28;20209;-74
2024/01/07 10:27:06;;;;;;;4.33;3.93;;;;;;;3.63;100.00;97847.22;5115120;28;20184;-74
2024/01/07 10:29:34;;;;;;;4.73;4.27;;;;;;;3.58;100.00;97854.84;5115458;28;20227;-74
2024/01/07 10:32:03;;;;;;;4.13;3.43;;;;;;;3.61;100.00;97856.28;5116108;28;20584;-74
2024/01/07 10:34:32;;;;;;;4.93;4.43;;;;;;;3.42;100.00;97872.56;5115681;28;20226;-74
2024/01/07 10:37:01;;;;;;;6.27;4.37;;;;;;;3.32;100.00;97872.00;5114171;28;20226;-74
2024/01/07 10:39:27;;;;;;;5.03;4.33;;;;;;;3.32;100.00;97857.06;5115304;28;20222;-74
2024/01/07 10:41:57;;;;;;;5.07;4.57;;;;;;;3.56;100.00;97869.13;5115443;28;20203;-74
2024/01/07 10:44:26;;;;;;;5.67;4.60;;;;;;;3.41;100.00;97863.88;5115389;28;20246;-74
2024/01/07 10:46:55;;;;;;;5.23;4.53;;;;;;;3.61;100.00;97867.59;5115657;28;20200;-74
2024/01/07 10:49:22;;;;;;;6.23;4.90;;;;;;;3.62;100.00;97879.75;5115032;28;20229;-74
2024/01/07 10:52:04;;;;;;;5.53;4.97;;;;;;;3.63;100.00;97873.50;5115188;27;20257;-74
2024/01/07 10:54:31;;;;;;;5.70;4.90;;;;;;;3.59;100.00;97874.03;5115220;28;20183;-74
2024/01/07 10:57:40;;;;;;;5.53;5.03;;;;;;;3.81;100.00;97870.53;5115103;28;20233;-74
2024/01/07 11:00:08;;;;;;;5.60;4.77;;;;;;;3.72;100.00;97872.44;5114602;28;20218;-74
2024/01/07 11:03:03;;;;;;;5.10;4.60;;;;;;;3.59;100.00;97876.66;5114855;28;20203;-74
2024/01/07 11:05:43;;;;;;;5.67;4.47;;;;;;;3.59;100.00;97887.19;5114729;28;20549;-74
2024/01/07 11:08:33;;;;;;;4.87;4.10;;;;;;;3.58;100.00;97881.13;5114510;28;20190;-74
2024/01/07 11:11:24;;;;;;;5.10;4.10;;;;;;;3.56;100.00;97879.66;5114767;28;20229;-74
2024/01/07 11:13:50;;;;;;;5.40;4.90;;;;;;;3.64;100.00;97872.50;5115180;28;20207;-74
2024/01/07 11:16:43;;;;;;;4.43;4.00;;;;;;;3.54;100.00;97879.03;5114608;28;20771;-74
2024/01/07 11:19:10;;;;;;;5.33;4.57;;;;;;;3.50;100.00;97883.81;5115435;28;20609;-74
2024/01/07 11:21:36;;;;;;;4.33;3.93;;;;;;;3.52;100.00;97883.66;5114287;27;20215;-74
2024/01/07 11:24:04;;;;;;;4.53;4.07;;;;;;;3.47;100.00;97883.34;5114601;28;20187;-74
2024/01/07 11:26:30;;;;;;;4.70;4.17;;;;;;;3.61;100.00;97877.31;5114085;28;20707;-74
2024/01/07 11:28:58;;;;;;;5.27;4.50;;;;;;;3.55;100.00;97878.84;5114323;28;20204;-74
2024/01/07 11:31:39;;;;;;;4.60;4.20;;;;;;;3.59;100.00;97880.13;5114153;28;20210;-74
2024/01/07 11:34:13;;;;;;;4.87;4.10;;;;;;;3.56;100.00;97875.22;5114447;28;20203;-74